sensor_id;sensor_type;location;lat;lon;timestamp;P1;durP1;ratioP1;P2;durP2;ratioP2
10465;SDS011;5280;42.600;23.556;2022-12-24T00:01:29;12.23;;;8.67;;
10465;SDS011;5280;42.600;23.556;2022-12-24T00:03:56;11.17;;;8.00;;
10465;SDS011;5280;42.600;23.556;2022-12-24T00:06:23;10.10;;;7.23;;
10465;SDS011;5280;42.600;23.556;2022-12-24T00:08:50;8.80;;;7.07;;
10465;SDS011;5280;42.600;23.556;2022-12-24T00:11:17;9.87;;;6.90;;
10465;SDS011;5280;42.600;23.556;2022-12-24T00:13:45;8.80;;;7.13;;
10465;SDS011;5280;42.600;23.556;2022-12-24T00:16:12;11.23;;;7.30;;
10465;SDS011;5280;42.600;23.556;2022-12-24T00:18:39;6.80;;;5.70;;
10465;SDS011;5280;42.600;23.556;2022-12-24T00:21:06;10.67;;;6.43;;
10465;SDS011;5280;42.600;23.556;2022-12-24T00:23:33;8.30;;;6.20;;
10465;SDS011;5280;42.600;23.556;2022-12-24T00:26:00;8.20;;;5.80;;
10465;SDS011;5280;42.600;23.556;2022-12-24T00:28:29;9.90;;;6.73;;
10465;SDS011;5280;42.600;23.556;2022-12-24T00:30:57;8.50;;;6.73;;
10465;SDS011;5280;42.600;23.556;2022-12-24T00:33:24;9.97;;;7.50;;
10465;SDS011;5280;42.600;23.556;2022-12-24T00:35:51;10.03;;;7.17;;
10465;SDS011;5280;42.600;23.556;2022-12-24T00:38:18;10.60;;;7.13;;
10465;SDS011;5280;42.600;23.556;2022-12-24T00:40:45;9.60;;;6.97;;
10465;SDS011;5280;42.600;23.556;2022-12-24T00:43:11;8.90;;;7.00;;
10465;SDS011;5280;42.600;23.556;2022-12-24T00:45:38;9.70;;;6.90;;
10465;SDS011;5280;42.600;23.556;2022-12-24T00:48:06;8.43;;;6.70;;
10465;SDS011;5280;42.600;23.556;2022-12-24T00:50:33;8.83;;;6.37;;
10465;SDS011;5280;42.600;23.556;2022-12-24T00:53:00;8.53;;;6.37;;
10465;SDS011;5280;42.600;23.556;2022-12-24T00:55:26;11.50;;;7.40;;
10465;SDS011;5280;42.600;23.556;2022-12-24T00:57:54;8.37;;;6.40;;
10465;SDS011;5280;42.600;23.556;2022-12-24T01:00:21;8.77;;;6.20;;
10465;SDS011;5280;42.600;23.556;2022-12-24T01:02:47;7.17;;;6.30;;
10465;SDS011;5280;42.600;23.556;2022-12-24T01:05:15;6.47;;;5.70;;
10465;SDS011;5280;42.600;23.556;2022-12-24T01:07:44;6.73;;;5.47;;
10465;SDS011;5280;42.600;23.556;2022-12-24T01:10:12;6.77;;;5.00;;
10465;SDS011;5280;42.600;23.556;2022-12-24T01:12:41;7.90;;;5.70;;
10465;SDS011;5280;42.600;23.556;2022-12-24T01:15:09;7.73;;;5.70;;
10465;SDS011;5280;42.600;23.556;2022-12-24T01:17:36;8.83;;;5.77;;
10465;SDS011;5280;42.600;23.556;2022-12-24T01:20:03;10.83;;;6.13;;
10465;SDS011;5280;42.600;23.556;2022-12-24T01:22:34;7.80;;;5.80;;
10465;SDS011;5280;42.600;23.556;2022-12-24T01:25:01;6.47;;;5.27;;
10465;SDS011;5280;42.600;23.556;2022-12-24T01:27:28;5.47;;;4.53;;
10465;SDS011;5280;42.600;23.556;2022-12-24T01:29:55;6.20;;;5.37;;
10465;SDS011;5280;42.600;23.556;2022-12-24T01:32:21;6.13;;;5.00;;
10465;SDS011;5280;42.600;23.556;2022-12-24T01:34:48;6.40;;;5.13;;
10465;SDS011;5280;42.600;23.556;2022-12-24T01:37:15;6.20;;;4.97;;
10465;SDS011;5280;42.600;23.556;2022-12-24T01:39:43;7.03;;;5.53;;
10465;SDS011;5280;42.600;23.556;2022-12-24T01:42:19;5.53;;;4.77;;
10465;SDS011;5280;42.600;23.556;2022-12-24T01:48:10;6.77;;;5.40;;
10465;SDS011;5280;42.600;23.556;2022-12-24T01:50:42;6.70;;;4.83;;
10465;SDS011;5280;42.600;23.556;2022-12-24T01:53:09;6.30;;;4.17;;
10465;SDS011;5280;42.600;23.556;2022-12-24T01:55:38;6.27;;;4.00;;
10465;SDS011;5280;42.600;23.556;2022-12-24T01:58:05;5.23;;;4.30;;
10465;SDS011;5280;42.600;23.556;2022-12-24T02:00:33;4.20;;;3.80;;
10465;SDS011;5280;42.600;23.556;2022-12-24T02:03:00;6.07;;;4.23;;
10465;SDS011;5280;42.600;23.556;2022-12-24T02:05:28;5.43;;;4.00;;
10465;SDS011;5280;42.600;23.556;2022-12-24T02:08:02;6.40;;;4.77;;
10465;SDS011;5280;42.600;23.556;2022-12-24T02:10:30;4.63;;;3.73;;
10465;SDS011;5280;42.600;23.556;2022-12-24T02:12:58;5.93;;;4.60;;
10465;SDS011;5280;42.600;23.556;2022-12-24T02:15:26;5.90;;;4.20;;
10465;SDS011;5280;42.600;23.556;2022-12-24T02:18:01;6.00;;;5.27;;
10465;SDS011;5280;42.600;23.556;2022-12-24T02:20:54;6.70;;;4.03;;
10465;SDS011;5280;42.600;23.556;2022-12-24T02:27:10;5.93;;;4.37;;
10465;SDS011;5280;42.600;23.556;2022-12-24T02:29:53;6.87;;;5.20;;
10465;SDS011;5280;42.600;23.556;2022-12-24T02:32:44;6.23;;;4.73;;
10465;SDS011;5280;42.600;23.556;2022-12-24T02:35:30;6.83;;;4.97;;
10465;SDS011;5280;42.600;23.556;2022-12-24T02:38:07;9.57;;;5.70;;
10465;SDS011;5280;42.600;23.556;2022-12-24T02:40:40;8.03;;;5.53;;
10465;SDS011;5280;42.600;23.556;2022-12-24T02:43:12;6.97;;;5.40;;
10465;SDS011;5280;42.600;23.556;2022-12-24T02:45:44;6.07;;;5.17;;
10465;SDS011;5280;42.600;23.556;2022-12-24T02:48:14;5.33;;;4.57;;
10465;SDS011;5280;42.600;23.556;2022-12-24T02:53:34;5.97;;;4.80;;
10465;SDS011;5280;42.600;23.556;2022-12-24T02:56:06;5.67;;;4.13;;
10465;SDS011;5280;42.600;23.556;2022-12-24T02:58:49;4.63;;;3.90;;
10465;SDS011;5280;42.600;23.556;2022-12-24T03:01:28;5.53;;;4.40;;
10465;SDS011;5280;42.600;23.556;2022-12-24T03:04:06;6.17;;;4.30;;
10465;SDS011;5280;42.600;23.556;2022-12-24T03:06:42;5.50;;;4.43;;
10465;SDS011;5280;42.600;23.556;2022-12-24T03:09:17;6.40;;;4.50;;
10465;SDS011;5280;42.600;23.556;2022-12-24T03:11:52;7.13;;;4.63;;
10465;SDS011;5280;42.600;23.556;2022-12-24T03:14:24;7.37;;;5.07;;
10465;SDS011;5280;42.600;23.556;2022-12-24T03:16:54;5.73;;;4.10;;
10465;SDS011;5280;42.600;23.556;2022-12-24T03:19:22;5.70;;;4.87;;
10465;SDS011;5280;42.600;23.556;2022-12-24T03:21:50;5.83;;;4.20;;
10465;SDS011;5280;42.600;23.556;2022-12-24T03:24:19;5.50;;;4.60;;
10465;SDS011;5280;42.600;23.556;2022-12-24T03:26:46;10.27;;;4.33;;
10465;SDS011;5280;42.600;23.556;2022-12-24T03:29:13;5.03;;;4.23;;
10465;SDS011;5280;42.600;23.556;2022-12-24T03:31:42;6.30;;;4.60;;
10465;SDS011;5280;42.600;23.556;2022-12-24T03:34:12;8.47;;;4.40;;
10465;SDS011;5280;42.600;23.556;2022-12-24T03:36:40;4.23;;;3.83;;
10465;SDS011;5280;42.600;23.556;2022-12-24T03:39:07;3.77;;;3.47;;
10465;SDS011;5280;42.600;23.556;2022-12-24T03:41:35;5.40;;;4.07;;
10465;SDS011;5280;42.600;23.556;2022-12-24T03:44:03;5.50;;;4.13;;
10465;SDS011;5280;42.600;23.556;2022-12-24T03:46:30;5.23;;;4.40;;
10465;SDS011;5280;42.600;23.556;2022-12-24T03:48:57;4.50;;;4.07;;
10465;SDS011;5280;42.600;23.556;2022-12-24T03:51:25;4.93;;;4.33;;
10465;SDS011;5280;42.600;23.556;2022-12-24T03:53:52;9.67;;;5.20;;
10465;SDS011;5280;42.600;23.556;2022-12-24T03:56:20;6.20;;;5.10;;
10465;SDS011;5280;42.600;23.556;2022-12-24T03:58:46;7.33;;;5.17;;
10465;SDS011;5280;42.600;23.556;2022-12-24T04:01:13;6.10;;;4.83;;
10465;SDS011;5280;42.600;23.556;2022-12-24T04:03:40;6.50;;;5.30;;
10465;SDS011;5280;42.600;23.556;2022-12-24T04:06:08;5.67;;;5.10;;
10465;SDS011;5280;42.600;23.556;2022-12-24T04:08:38;7.63;;;5.30;;
10465;SDS011;5280;42.600;23.556;2022-12-24T04:11:06;5.87;;;4.90;;
10465;SDS011;5280;42.600;23.556;2022-12-24T04:13:34;7.93;;;4.93;;
10465;SDS011;5280;42.600;23.556;2022-12-24T04:16:01;6.17;;;4.73;;
10465;SDS011;5280;42.600;23.556;2022-12-24T04:18:30;7.10;;;4.97;;
10465;SDS011;5280;42.600;23.556;2022-12-24T04:20:57;7.30;;;5.20;;
10465;SDS011;5280;42.600;23.556;2022-12-24T04:23:24;6.43;;;4.77;;
10465;SDS011;5280;42.600;23.556;2022-12-24T04:25:52;5.90;;;5.00;;
10465;SDS011;5280;42.600;23.556;2022-12-24T04:28:19;5.47;;;4.90;;
10465;SDS011;5280;42.600;23.556;2022-12-24T04:30:46;5.43;;;4.50;;
10465;SDS011;5280;42.600;23.556;2022-12-24T04:33:12;5.60;;;4.37;;
10465;SDS011;5280;42.600;23.556;2022-12-24T04:35:39;5.47;;;4.17;;
10465;SDS011;5280;42.600;23.556;2022-12-24T04:38:06;6.47;;;4.53;;
10465;SDS011;5280;42.600;23.556;2022-12-24T04:40:33;6.70;;;4.63;;
10465;SDS011;5280;42.600;23.556;2022-12-24T04:43:02;6.53;;;4.50;;
10465;SDS011;5280;42.600;23.556;2022-12-24T04:45:29;4.83;;;4.13;;
10465;SDS011;5280;42.600;23.556;2022-12-24T04:47:56;5.00;;;4.50;;
10465;SDS011;5280;42.600;23.556;2022-12-24T04:50:23;6.40;;;4.30;;
10465;SDS011;5280;42.600;23.556;2022-12-24T04:52:50;5.47;;;4.80;;
10465;SDS011;5280;42.600;23.556;2022-12-24T04:55:17;6.53;;;5.13;;
10465;SDS011;5280;42.600;23.556;2022-12-24T04:57:43;5.87;;;4.80;;
10465;SDS011;5280;42.600;23.556;2022-12-24T05:00:12;6.93;;;5.10;;
10465;SDS011;5280;42.600;23.556;2022-12-24T05:02:39;6.73;;;4.80;;
10465;SDS011;5280;42.600;23.556;2022-12-24T05:05:06;5.53;;;4.67;;
10465;SDS011;5280;42.600;23.556;2022-12-24T05:07:33;8.30;;;5.00;;
10465;SDS011;5280;42.600;23.556;2022-12-24T05:10:00;6.40;;;4.90;;
10465;SDS011;5280;42.600;23.556;2022-12-24T05:12:27;7.87;;;5.43;;
10465;SDS011;5280;42.600;23.556;2022-12-24T05:14:55;5.27;;;4.63;;
10465;SDS011;5280;42.600;23.556;2022-12-24T05:17:23;5.97;;;4.90;;
10465;SDS011;5280;42.600;23.556;2022-12-24T05:19:50;7.97;;;5.73;;
10465;SDS011;5280;42.600;23.556;2022-12-24T05:22:16;6.37;;;4.67;;
10465;SDS011;5280;42.600;23.556;2022-12-24T05:25:01;7.13;;;5.43;;
10465;SDS011;5280;42.600;23.556;2022-12-24T05:27:45;6.90;;;5.60;;
10465;SDS011;5280;42.600;23.556;2022-12-24T05:30:12;7.60;;;5.53;;
10465;SDS011;5280;42.600;23.556;2022-12-24T05:32:40;6.53;;;4.97;;
10465;SDS011;5280;42.600;23.556;2022-12-24T05:35:07;7.30;;;5.10;;
10465;SDS011;5280;42.600;23.556;2022-12-24T05:37:34;6.40;;;5.13;;
10465;SDS011;5280;42.600;23.556;2022-12-24T05:40:00;6.27;;;5.07;;
10465;SDS011;5280;42.600;23.556;2022-12-24T05:42:27;9.13;;;5.50;;
10465;SDS011;5280;42.600;23.556;2022-12-24T05:44:54;9.00;;;5.57;;
10465;SDS011;5280;42.600;23.556;2022-12-24T05:47:21;6.40;;;4.63;;
10465;SDS011;5280;42.600;23.556;2022-12-24T05:49:49;7.00;;;4.97;;
10465;SDS011;5280;42.600;23.556;2022-12-24T05:52:18;7.00;;;4.93;;
10465;SDS011;5280;42.600;23.556;2022-12-24T05:54:45;5.80;;;5.20;;
10465;SDS011;5280;42.600;23.556;2022-12-24T05:57:12;5.67;;;5.07;;
10465;SDS011;5280;42.600;23.556;2022-12-24T05:59:38;7.60;;;5.10;;
10465;SDS011;5280;42.600;23.556;2022-12-24T06:02:05;6.10;;;4.90;;
10465;SDS011;5280;42.600;23.556;2022-12-24T06:04:32;5.87;;;5.03;;
10465;SDS011;5280;42.600;23.556;2022-12-24T06:07:00;6.57;;;5.17;;
10465;SDS011;5280;42.600;23.556;2022-12-24T06:09:27;8.47;;;5.60;;
10465;SDS011;5280;42.600;23.556;2022-12-24T06:11:54;9.73;;;5.27;;
10465;SDS011;5280;42.600;23.556;2022-12-24T06:14:20;6.17;;;4.93;;
10465;SDS011;5280;42.600;23.556;2022-12-24T06:16:47;6.40;;;5.43;;
10465;SDS011;5280;42.600;23.556;2022-12-24T06:19:14;8.10;;;4.77;;
10465;SDS011;5280;42.600;23.556;2022-12-24T06:21:40;6.30;;;4.53;;
10465;SDS011;5280;42.600;23.556;2022-12-24T06:24:08;5.70;;;5.10;;
10465;SDS011;5280;42.600;23.556;2022-12-24T06:26:35;7.10;;;5.60;;
10465;SDS011;5280;42.600;23.556;2022-12-24T06:29:02;8.00;;;5.20;;
10465;SDS011;5280;42.600;23.556;2022-12-24T06:31:28;7.43;;;5.23;;
10465;SDS011;5280;42.600;23.556;2022-12-24T06:33:55;6.37;;;5.37;;
10465;SDS011;5280;42.600;23.556;2022-12-24T06:36:23;5.93;;;4.83;;
10465;SDS011;5280;42.600;23.556;2022-12-24T06:38:51;6.70;;;5.20;;
10465;SDS011;5280;42.600;23.556;2022-12-24T06:41:20;6.37;;;4.93;;
10465;SDS011;5280;42.600;23.556;2022-12-24T06:43:48;5.53;;;4.83;;
10465;SDS011;5280;42.600;23.556;2022-12-24T06:46:17;6.40;;;4.97;;
10465;SDS011;5280;42.600;23.556;2022-12-24T06:48:47;6.33;;;4.77;;
10465;SDS011;5280;42.600;23.556;2022-12-24T06:51:15;7.50;;;5.10;;
10465;SDS011;5280;42.600;23.556;2022-12-24T06:53:43;6.67;;;4.77;;
10465;SDS011;5280;42.600;23.556;2022-12-24T06:56:11;6.47;;;4.97;;
10465;SDS011;5280;42.600;23.556;2022-12-24T06:58:40;5.60;;;4.80;;
10465;SDS011;5280;42.600;23.556;2022-12-24T07:01:08;5.27;;;4.77;;
10465;SDS011;5280;42.600;23.556;2022-12-24T07:03:36;6.27;;;5.07;;
10465;SDS011;5280;42.600;23.556;2022-12-24T07:06:03;6.27;;;4.90;;
10465;SDS011;5280;42.600;23.556;2022-12-24T07:08:30;6.67;;;4.23;;
10465;SDS011;5280;42.600;23.556;2022-12-24T07:11:00;5.50;;;4.40;;
10465;SDS011;5280;42.600;23.556;2022-12-24T07:13:27;6.10;;;5.00;;
10465;SDS011;5280;42.600;23.556;2022-12-24T07:15:57;5.20;;;4.70;;
10465;SDS011;5280;42.600;23.556;2022-12-24T07:18:24;7.33;;;4.70;;
10465;SDS011;5280;42.600;23.556;2022-12-24T07:20:51;5.47;;;4.87;;
10465;SDS011;5280;42.600;23.556;2022-12-24T07:23:18;5.80;;;4.97;;
10465;SDS011;5280;42.600;23.556;2022-12-24T07:25:44;6.53;;;4.37;;
10465;SDS011;5280;42.600;23.556;2022-12-24T07:28:11;7.20;;;5.00;;
10465;SDS011;5280;42.600;23.556;2022-12-24T07:30:38;6.37;;;4.90;;
10465;SDS011;5280;42.600;23.556;2022-12-24T07:33:08;6.87;;;5.33;;
10465;SDS011;5280;42.600;23.556;2022-12-24T07:35:35;7.77;;;5.30;;
10465;SDS011;5280;42.600;23.556;2022-12-24T07:38:01;8.00;;;5.60;;
10465;SDS011;5280;42.600;23.556;2022-12-24T07:40:28;7.47;;;5.77;;
10465;SDS011;5280;42.600;23.556;2022-12-24T07:42:55;13.80;;;9.87;;
10465;SDS011;5280;42.600;23.556;2022-12-24T07:45:22;12.77;;;8.80;;
10465;SDS011;5280;42.600;23.556;2022-12-24T07:47:48;10.80;;;7.60;;
10465;SDS011;5280;42.600;23.556;2022-12-24T07:50:16;10.30;;;7.80;;
10465;SDS011;5280;42.600;23.556;2022-12-24T07:52:43;11.27;;;7.63;;
10465;SDS011;5280;42.600;23.556;2022-12-24T07:55:10;10.50;;;8.27;;
10465;SDS011;5280;42.600;23.556;2022-12-24T07:57:37;11.40;;;8.03;;
10465;SDS011;5280;42.600;23.556;2022-12-24T08:00:04;11.40;;;7.37;;
10465;SDS011;5280;42.600;23.556;2022-12-24T08:02:32;11.73;;;7.80;;
10465;SDS011;5280;42.600;23.556;2022-12-24T08:05:00;10.90;;;8.83;;
10465;SDS011;5280;42.600;23.556;2022-12-24T08:07:28;11.13;;;9.03;;
10465;SDS011;5280;42.600;23.556;2022-12-24T08:09:55;10.50;;;8.20;;
10465;SDS011;5280;42.600;23.556;2022-12-24T08:12:22;11.90;;;7.33;;
10465;SDS011;5280;42.600;23.556;2022-12-24T08:14:48;10.90;;;8.03;;
10465;SDS011;5280;42.600;23.556;2022-12-24T08:17:15;12.13;;;9.10;;
10465;SDS011;5280;42.600;23.556;2022-12-24T08:19:42;12.70;;;8.53;;
10465;SDS011;5280;42.600;23.556;2022-12-24T08:22:09;11.63;;;8.00;;
10465;SDS011;5280;42.600;23.556;2022-12-24T08:24:37;10.47;;;8.33;;
10465;SDS011;5280;42.600;23.556;2022-12-24T08:27:03;10.40;;;8.00;;
10465;SDS011;5280;42.600;23.556;2022-12-24T08:29:30;11.33;;;8.53;;
10465;SDS011;5280;42.600;23.556;2022-12-24T08:31:57;9.87;;;8.23;;
10465;SDS011;5280;42.600;23.556;2022-12-24T08:34:24;9.03;;;7.33;;
10465;SDS011;5280;42.600;23.556;2022-12-24T08:36:51;12.33;;;6.90;;
10465;SDS011;5280;42.600;23.556;2022-12-24T08:39:20;10.93;;;7.37;;
10465;SDS011;5280;42.600;23.556;2022-12-24T08:41:49;9.07;;;6.60;;
10465;SDS011;5280;42.600;23.556;2022-12-24T08:44:15;10.93;;;6.87;;
10465;SDS011;5280;42.600;23.556;2022-12-24T08:46:42;6.90;;;6.00;;
10465;SDS011;5280;42.600;23.556;2022-12-24T08:49:09;8.87;;;6.80;;
10465;SDS011;5280;42.600;23.556;2022-12-24T08:51:36;9.73;;;6.80;;
10465;SDS011;5280;42.600;23.556;2022-12-24T08:54:03;11.30;;;6.40;;
10465;SDS011;5280;42.600;23.556;2022-12-24T08:56:30;11.30;;;7.43;;
10465;SDS011;5280;42.600;23.556;2022-12-24T08:58:59;7.50;;;6.73;;
10465;SDS011;5280;42.600;23.556;2022-12-24T09:01:27;7.93;;;7.13;;
10465;SDS011;5280;42.600;23.556;2022-12-24T09:03:53;9.83;;;7.83;;
10465;SDS011;5280;42.600;23.556;2022-12-24T09:06:23;9.03;;;6.77;;
10465;SDS011;5280;42.600;23.556;2022-12-24T09:08:49;11.07;;;7.87;;
10465;SDS011;5280;42.600;23.556;2022-12-24T09:11:17;12.13;;;8.27;;
10465;SDS011;5280;42.600;23.556;2022-12-24T09:13:44;11.37;;;7.70;;
10465;SDS011;5280;42.600;23.556;2022-12-24T09:16:13;10.20;;;8.57;;
10465;SDS011;5280;42.600;23.556;2022-12-24T09:18:40;10.60;;;8.13;;
10465;SDS011;5280;42.600;23.556;2022-12-24T09:21:08;8.90;;;7.67;;
10465;SDS011;5280;42.600;23.556;2022-12-24T09:23:38;9.13;;;8.10;;
10465;SDS011;5280;42.600;23.556;2022-12-24T09:26:06;9.90;;;7.40;;
10465;SDS011;5280;42.600;23.556;2022-12-24T09:28:34;17.63;;;11.70;;
10465;SDS011;5280;42.600;23.556;2022-12-24T09:31:01;20.47;;;13.87;;
10465;SDS011;5280;42.600;23.556;2022-12-24T09:33:31;21.50;;;14.87;;
10465;SDS011;5280;42.600;23.556;2022-12-24T09:36:00;19.00;;;13.63;;
10465;SDS011;5280;42.600;23.556;2022-12-24T09:38:27;18.93;;;13.77;;
10465;SDS011;5280;42.600;23.556;2022-12-24T09:40:54;22.33;;;16.47;;
10465;SDS011;5280;42.600;23.556;2022-12-24T09:43:23;24.00;;;17.23;;
10465;SDS011;5280;42.600;23.556;2022-12-24T09:45:54;21.93;;;16.47;;
10465;SDS011;5280;42.600;23.556;2022-12-24T09:48:29;20.20;;;15.27;;
10465;SDS011;5280;42.600;23.556;2022-12-24T09:51:00;18.53;;;13.63;;
10465;SDS011;5280;42.600;23.556;2022-12-24T09:53:33;18.07;;;11.27;;
10465;SDS011;5280;42.600;23.556;2022-12-24T09:56:04;15.00;;;11.33;;
10465;SDS011;5280;42.600;23.556;2022-12-24T09:58:38;13.50;;;10.87;;
10465;SDS011;5280;42.600;23.556;2022-12-24T10:01:10;15.27;;;11.07;;
10465;SDS011;5280;42.600;23.556;2022-12-24T10:03:39;16.87;;;13.43;;
10465;SDS011;5280;42.600;23.556;2022-12-24T10:06:07;16.50;;;13.93;;
10465;SDS011;5280;42.600;23.556;2022-12-24T10:08:40;18.37;;;14.50;;
10465;SDS011;5280;42.600;23.556;2022-12-24T10:11:18;19.10;;;14.07;;
10465;SDS011;5280;42.600;23.556;2022-12-24T10:13:52;16.33;;;13.77;;
10465;SDS011;5280;42.600;23.556;2022-12-24T10:16:31;17.87;;;14.00;;
10465;SDS011;5280;42.600;23.556;2022-12-24T10:19:10;16.87;;;13.70;;
10465;SDS011;5280;42.600;23.556;2022-12-24T10:21:43;21.57;;;14.63;;
10465;SDS011;5280;42.600;23.556;2022-12-24T10:24:20;29.37;;;18.23;;
10465;SDS011;5280;42.600;23.556;2022-12-24T10:26:52;39.57;;;21.00;;
10465;SDS011;5280;42.600;23.556;2022-12-24T10:29:23;30.07;;;18.03;;
10465;SDS011;5280;42.600;23.556;2022-12-24T10:31:53;19.00;;;14.00;;
10465;SDS011;5280;42.600;23.556;2022-12-24T10:34:32;18.67;;;14.57;;
10465;SDS011;5280;42.600;23.556;2022-12-24T10:37:03;21.03;;;14.67;;
10465;SDS011;5280;42.600;23.556;2022-12-24T10:39:30;16.90;;;13.30;;
10465;SDS011;5280;42.600;23.556;2022-12-24T10:41:58;18.03;;;12.30;;
10465;SDS011;5280;42.600;23.556;2022-12-24T10:44:26;11.70;;;8.10;;
10465;SDS011;5280;42.600;23.556;2022-12-24T10:46:56;12.30;;;9.90;;
10465;SDS011;5280;42.600;23.556;2022-12-24T10:49:25;15.57;;;11.10;;
10465;SDS011;5280;42.600;23.556;2022-12-24T10:52:01;16.03;;;11.20;;
10465;SDS011;5280;42.600;23.556;2022-12-24T10:54:30;14.50;;;11.60;;
10465;SDS011;5280;42.600;23.556;2022-12-24T10:57:03;16.70;;;11.50;;
10465;SDS011;5280;42.600;23.556;2022-12-24T10:59:33;12.83;;;9.63;;
10465;SDS011;5280;42.600;23.556;2022-12-24T11:02:23;15.77;;;9.37;;
10465;SDS011;5280;42.600;23.556;2022-12-24T11:04:52;12.50;;;8.43;;
10465;SDS011;5280;42.600;23.556;2022-12-24T11:07:21;9.83;;;8.83;;
10465;SDS011;5280;42.600;23.556;2022-12-24T11:09:54;11.70;;;9.33;;
10465;SDS011;5280;42.600;23.556;2022-12-24T11:12:24;9.53;;;8.20;;
10465;SDS011;5280;42.600;23.556;2022-12-24T11:15:01;10.20;;;8.27;;
10465;SDS011;5280;42.600;23.556;2022-12-24T11:17:30;12.23;;;8.83;;
10465;SDS011;5280;42.600;23.556;2022-12-24T11:19:58;10.70;;;8.60;;
10465;SDS011;5280;42.600;23.556;2022-12-24T11:22:28;13.37;;;9.13;;
10465;SDS011;5280;42.600;23.556;2022-12-24T11:24:59;11.80;;;8.80;;
10465;SDS011;5280;42.600;23.556;2022-12-24T11:27:30;14.67;;;9.23;;
10465;SDS011;5280;42.600;23.556;2022-12-24T11:30:19;13.50;;;8.43;;
10465;SDS011;5280;42.600;23.556;2022-12-24T11:32:48;8.70;;;6.80;;
10465;SDS011;5280;42.600;23.556;2022-12-24T11:35:17;11.07;;;8.00;;
10465;SDS011;5280;42.600;23.556;2022-12-24T11:37:47;9.10;;;8.00;;
10465;SDS011;5280;42.600;23.556;2022-12-24T11:40:18;10.20;;;7.87;;
10465;SDS011;5280;42.600;23.556;2022-12-24T11:42:46;12.07;;;8.60;;
10465;SDS011;5280;42.600;23.556;2022-12-24T11:45:20;10.60;;;8.70;;
10465;SDS011;5280;42.600;23.556;2022-12-24T11:47:50;13.10;;;8.93;;
10465;SDS011;5280;42.600;23.556;2022-12-24T11:50:23;12.43;;;7.93;;
10465;SDS011;5280;42.600;23.556;2022-12-24T11:52:54;11.13;;;7.80;;
10465;SDS011;5280;42.600;23.556;2022-12-24T11:55:28;11.90;;;8.07;;
10465;SDS011;5280;42.600;23.556;2022-12-24T11:58:04;9.20;;;7.57;;
10465;SDS011;5280;42.600;23.556;2022-12-24T12:00:40;10.83;;;7.83;;
10465;SDS011;5280;42.600;23.556;2022-12-24T12:03:11;9.77;;;6.87;;
10465;SDS011;5280;42.600;23.556;2022-12-24T12:05:52;8.43;;;7.07;;
10465;SDS011;5280;42.600;23.556;2022-12-24T12:08:21;8.97;;;7.50;;
10465;SDS011;5280;42.600;23.556;2022-12-24T12:10:52;12.57;;;8.53;;
10465;SDS011;5280;42.600;23.556;2022-12-24T12:13:26;10.57;;;8.40;;
10465;SDS011;5280;42.600;23.556;2022-12-24T12:16:02;9.50;;;7.43;;
10465;SDS011;5280;42.600;23.556;2022-12-24T12:18:34;9.43;;;7.00;;
10465;SDS011;5280;42.600;23.556;2022-12-24T12:21:04;8.63;;;6.37;;
10465;SDS011;5280;42.600;23.556;2022-12-24T12:23:37;7.13;;;6.30;;
10465;SDS011;5280;42.600;23.556;2022-12-24T12:26:09;7.60;;;5.77;;
10465;SDS011;5280;42.600;23.556;2022-12-24T12:28:40;8.13;;;6.17;;
10465;SDS011;5280;42.600;23.556;2022-12-24T12:31:12;7.43;;;5.60;;
10465;SDS011;5280;42.600;23.556;2022-12-24T12:33:45;7.90;;;6.07;;
10465;SDS011;5280;42.600;23.556;2022-12-24T12:36:16;7.77;;;6.60;;
10465;SDS011;5280;42.600;23.556;2022-12-24T12:38:49;9.33;;;6.60;;
10465;SDS011;5280;42.600;23.556;2022-12-24T12:41:22;9.73;;;7.27;;
10465;SDS011;5280;42.600;23.556;2022-12-24T12:44:14;10.00;;;6.70;;
10465;SDS011;5280;42.600;23.556;2022-12-24T12:47:27;7.90;;;6.50;;
10465;SDS011;5280;42.600;23.556;2022-12-24T12:50:07;7.77;;;6.63;;
10465;SDS011;5280;42.600;23.556;2022-12-24T12:52:42;8.83;;;7.00;;
10465;SDS011;5280;42.600;23.556;2022-12-24T12:55:25;12.83;;;9.40;;
10465;SDS011;5280;42.600;23.556;2022-12-24T12:58:02;13.67;;;11.10;;
10465;SDS011;5280;42.600;23.556;2022-12-24T13:00:34;14.07;;;10.47;;
10465;SDS011;5280;42.600;23.556;2022-12-24T13:03:12;13.77;;;10.83;;
10465;SDS011;5280;42.600;23.556;2022-12-24T13:06:22;15.40;;;11.10;;
10465;SDS011;5280;42.600;23.556;2022-12-24T13:09:05;20.53;;;14.43;;
10465;SDS011;5280;42.600;23.556;2022-12-24T13:12:05;23.40;;;16.63;;
10465;SDS011;5280;42.600;23.556;2022-12-24T13:15:18;26.40;;;17.87;;
10465;SDS011;5280;42.600;23.556;2022-12-24T13:18:05;21.60;;;13.97;;
10465;SDS011;5280;42.600;23.556;2022-12-24T13:20:49;21.63;;;13.83;;
10465;SDS011;5280;42.600;23.556;2022-12-24T13:23:17;17.07;;;13.50;;
10465;SDS011;5280;42.600;23.556;2022-12-24T13:25:46;19.03;;;14.80;;
10465;SDS011;5280;42.600;23.556;2022-12-24T13:28:29;19.67;;;14.47;;
10465;SDS011;5280;42.600;23.556;2022-12-24T13:33:55;20.97;;;16.10;;
10465;SDS011;5280;42.600;23.556;2022-12-24T13:36:23;18.50;;;14.53;;
10465;SDS011;5280;42.600;23.556;2022-12-24T13:38:50;14.67;;;13.00;;
10465;SDS011;5280;42.600;23.556;2022-12-24T13:47:03;19.50;;;15.77;;
10465;SDS011;5280;42.600;23.556;2022-12-24T13:49:46;18.53;;;14.17;;
10465;SDS011;5280;42.600;23.556;2022-12-24T13:52:20;16.03;;;13.03;;
10465;SDS011;5280;42.600;23.556;2022-12-24T13:57:42;18.17;;;12.23;;
10465;SDS011;5280;42.600;23.556;2022-12-24T14:00:28;16.67;;;12.30;;
10465;SDS011;5280;42.600;23.556;2022-12-24T14:03:04;16.20;;;11.73;;
10465;SDS011;5280;42.600;23.556;2022-12-24T14:05:44;13.80;;;12.27;;
10465;SDS011;5280;42.600;23.556;2022-12-24T14:08:14;14.90;;;10.43;;
10465;SDS011;5280;42.600;23.556;2022-12-24T14:10:55;13.13;;;11.20;;
10465;SDS011;5280;42.600;23.556;2022-12-24T14:16:41;14.40;;;11.20;;
10465;SDS011;5280;42.600;23.556;2022-12-24T14:19:21;16.73;;;12.50;;
10465;SDS011;5280;42.600;23.556;2022-12-24T14:21:54;19.70;;;14.70;;
10465;SDS011;5280;42.600;23.556;2022-12-24T14:24:26;20.70;;;15.13;;
10465;SDS011;5280;42.600;23.556;2022-12-24T14:27:04;20.57;;;16.07;;
10465;SDS011;5280;42.600;23.556;2022-12-24T14:29:42;20.53;;;16.37;;
10465;SDS011;5280;42.600;23.556;2022-12-24T14:32:15;21.77;;;16.50;;
10465;SDS011;5280;42.600;23.556;2022-12-24T14:34:42;25.03;;;18.27;;
10465;SDS011;5280;42.600;23.556;2022-12-24T14:37:11;25.63;;;18.80;;
10465;SDS011;5280;42.600;23.556;2022-12-24T14:39:40;25.23;;;19.70;;
10465;SDS011;5280;42.600;23.556;2022-12-24T14:42:15;28.50;;;21.80;;
10465;SDS011;5280;42.600;23.556;2022-12-24T14:44:58;34.33;;;20.10;;
10465;SDS011;5280;42.600;23.556;2022-12-24T14:47:34;30.63;;;23.53;;
10465;SDS011;5280;42.600;23.556;2022-12-24T14:53:18;26.60;;;19.83;;
10465;SDS011;5280;42.600;23.556;2022-12-24T14:55:51;27.33;;;20.63;;
10465;SDS011;5280;42.600;23.556;2022-12-24T14:58:22;27.37;;;21.40;;
10465;SDS011;5280;42.600;23.556;2022-12-24T15:00:51;25.80;;;19.60;;
10465;SDS011;5280;42.600;23.556;2022-12-24T15:03:21;26.03;;;20.90;;
10465;SDS011;5280;42.600;23.556;2022-12-24T15:05:50;27.33;;;19.73;;
10465;SDS011;5280;42.600;23.556;2022-12-24T15:08:20;24.93;;;19.70;;
10465;SDS011;5280;42.600;23.556;2022-12-24T15:10:53;23.53;;;18.23;;
10465;SDS011;5280;42.600;23.556;2022-12-24T15:13:25;23.93;;;17.43;;
10465;SDS011;5280;42.600;23.556;2022-12-24T15:15:57;19.73;;;15.70;;
10465;SDS011;5280;42.600;23.556;2022-12-24T15:18:27;21.37;;;16.37;;
10465;SDS011;5280;42.600;23.556;2022-12-24T15:20:57;20.57;;;15.17;;
10465;SDS011;5280;42.600;23.556;2022-12-24T15:23:28;19.40;;;14.57;;
10465;SDS011;5280;42.600;23.556;2022-12-24T15:26:06;21.83;;;14.47;;